createdAt,value
2019-03-22T00:00:31.871Z,56.57
2019-03-22T00:03:01.521Z,55.63
2019-03-22T00:05:28.859Z,55.11
2019-03-22T00:08:02.481Z,56.15
2019-03-22T00:10:30.905Z,56.69
2019-03-22T00:12:59.612Z,57.08
2019-03-22T00:15:30.269Z,57.22
2019-03-22T00:17:58.011Z,56.34
2019-03-22T00:20:25.725Z,55.82
2019-03-22T00:23:00.570Z,56.50
2019-03-22T00:25:27.628Z,55.62
2019-03-22T00:27:54.835Z,56.92
2019-03-22T00:30:24.518Z,57.47
2019-03-22T00:32:53.949Z,57.16
2019-03-22T00:35:25.273Z,56.68
2019-03-22T00:37:52.385Z,56.43
2019-03-22T00:40:19.273Z,56.22
2019-03-22T00:42:50.125Z,56.02
2019-03-22T00:45:19.744Z,56.54
2019-03-22T00:47:47.232Z,57.07
2019-03-22T00:50:16.799Z,57.01
2019-03-22T00:52:44.320Z,56.83
2019-03-22T00:55:14.322Z,57.31
2019-03-22T00:57:42.445Z,57.70
2019-03-22T01:00:13.860Z,58.59
2019-03-22T01:02:41.105Z,59.10
2019-03-22T01:05:11.666Z,58.86
2019-03-22T01:07:41.857Z,58.14
2019-03-22T01:10:13.782Z,57.40
2019-03-22T01:12:45.406Z,56.85
2019-03-22T01:15:18.811Z,56.53
2019-03-22T01:17:47.239Z,56.86
2019-03-22T01:20:14.402Z,56.94
2019-03-22T01:22:42.096Z,57.27
2019-03-22T01:25:10.052Z,56.93
2019-03-22T01:27:41.295Z,57.56
2019-03-22T01:30:15.488Z,57.82
2019-03-22T01:32:42.535Z,57.69
2019-03-22T01:35:10.741Z,57.65
2019-03-22T01:37:37.698Z,57.44
2019-03-22T01:40:13.421Z,57.44
2019-03-22T01:42:40.641Z,57.62
2019-03-22T01:45:11.177Z,57.99
2019-03-22T01:47:38.707Z,58.05
2019-03-22T01:50:13.587Z,58.27
2019-03-22T01:52:40.686Z,57.59
2019-03-22T01:55:08.871Z,57.52
2019-03-22T01:57:36.471Z,57.48
2019-03-22T02:00:08.205Z,57.36
2019-03-22T02:02:35.443Z,58.01
2019-03-22T02:05:07.036Z,58.31
2019-03-22T02:07:34.360Z,58.90
2019-03-22T02:10:07.904Z,59.38
2019-03-22T02:12:35.173Z,59.38
2019-03-22T02:15:05.531Z,59.17
2019-03-22T02:17:32.832Z,58.25
2019-03-22T02:20:00.258Z,57.67
2019-03-22T02:22:27.348Z,58.10
2019-03-22T02:24:54.535Z,58.16
2019-03-22T02:27:21.474Z,58.47
2019-03-22T02:29:49.815Z,58.21
2019-03-22T02:32:17.278Z,58.40
2019-03-22T02:34:44.438Z,58.28
2019-03-22T02:37:11.581Z,58.03
2019-03-22T02:39:38.643Z,58.47
2019-03-22T02:42:06.320Z,58.27
2019-03-22T02:44:33.424Z,57.96
2019-03-22T02:47:02.083Z,57.77
2019-03-22T02:49:29.342Z,57.97
2019-03-22T02:51:56.463Z,58.22
2019-03-22T02:54:25.994Z,58.50
2019-03-22T02:56:52.945Z,58.53
2019-03-22T02:59:19.938Z,58.72
2019-03-22T03:01:46.967Z,58.32
2019-03-22T03:04:14.069Z,58.98
2019-03-22T03:06:41.158Z,58.14
2019-03-22T03:09:08.147Z,57.80
2019-03-22T03:11:35.031Z,57.95
2019-03-22T03:14:02.298Z,58.32
2019-03-22T03:16:30.380Z,58.12
2019-03-22T03:18:57.330Z,59.48
2019-03-22T03:21:24.625Z,59.17
2019-03-22T03:23:52.110Z,59.58
2019-03-22T03:26:19.331Z,60.03
2019-03-22T03:28:46.701Z,59.63
2019-03-22T03:31:13.902Z,59.03
2019-03-22T03:33:41.437Z,59.02
2019-03-22T03:36:08.667Z,59.66
2019-03-22T03:38:36.428Z,59.68
2019-03-22T03:41:03.702Z,59.63
2019-03-22T03:43:31.272Z,59.67
2019-03-22T03:45:58.214Z,59.78
2019-03-22T03:48:25.164Z,59.88
2019-03-22T03:50:52.395Z,59.74
2019-03-22T03:53:19.912Z,59.72
2019-03-22T03:55:46.876Z,60.05
2019-03-22T03:58:13.905Z,59.81
2019-03-22T04:00:41.486Z,59.73
2019-03-22T04:03:08.431Z,60.16
2019-03-22T04:05:35.550Z,60.21
2019-03-22T04:08:03.140Z,60.03
2019-03-22T04:10:30.551Z,60.32
2019-03-22T04:12:57.740Z,60.40
2019-03-22T04:15:24.653Z,60.37
2019-03-22T04:17:51.605Z,60.63
2019-03-22T04:20:18.614Z,61.59
2019-03-22T04:22:46.119Z,61.51
2019-03-22T04:25:13.539Z,61.02
2019-03-22T04:27:40.582Z,60.54
2019-03-22T04:30:07.680Z,60.23
2019-03-22T04:32:34.538Z,59.72
2019-03-22T04:35:03.227Z,59.69
2019-03-22T04:37:30.270Z,60.31
2019-03-22T04:39:57.178Z,60.41
2019-03-22T04:42:24.290Z,60.34
2019-03-22T04:44:51.670Z,60.46
2019-03-22T04:47:20.972Z,60.74
2019-03-22T04:49:50.969Z,61.13
2019-03-22T04:52:23.629Z,61.11
2019-03-22T04:54:55.947Z,62.01
2019-03-22T04:57:26.090Z,62.25
2019-03-22T05:00:01.938Z,62.03
2019-03-22T05:02:32.431Z,62.04
2019-03-22T05:05:00.458Z,61.26
2019-03-22T05:07:28.992Z,61.61
2019-03-22T05:09:57.627Z,61.07
2019-03-22T05:12:27.780Z,60.71
2019-03-22T05:14:56.484Z,61.04
2019-03-22T05:17:25.259Z,61.16
2019-03-22T05:19:57.669Z,61.10
2019-03-22T05:22:29.488Z,61.44
2019-03-22T05:25:02.272Z,61.55
2019-03-22T05:27:35.222Z,61.16
2019-03-22T05:30:06.646Z,60.96
2019-03-22T05:32:34.223Z,60.09
2019-03-22T05:35:01.259Z,60.53
2019-03-22T05:37:28.439Z,60.66
2019-03-22T05:39:56.104Z,60.53
2019-03-22T05:42:23.265Z,60.71
2019-03-22T05:44:50.927Z,60.55
2019-03-22T05:47:20.406Z,60.46
2019-03-22T05:49:49.648Z,60.19
2019-03-22T05:52:16.663Z,60.67
2019-03-22T05:54:44.351Z,60.75
2019-03-22T05:57:14.193Z,61.39
2019-03-22T05:59:43.255Z,61.18
2019-03-22T06:02:13.912Z,61.03
2019-03-22T06:04:41.271Z,60.53
2019-03-22T06:07:08.794Z,60.46
2019-03-22T06:09:38.764Z,60.88
2019-03-22T06:12:16.606Z,60.81
2019-03-22T06:14:44.269Z,60.79
2019-03-22T06:17:11.665Z,60.85
2019-03-22T06:19:38.779Z,61.38
2019-03-22T06:22:07.909Z,61.07
2019-03-22T06:24:35.115Z,61.35
2019-03-22T06:27:02.385Z,61.15
2019-03-22T06:29:29.673Z,61.06
2019-03-22T06:31:57.193Z,60.82
2019-03-22T06:34:24.516Z,60.71
2019-03-22T06:36:51.768Z,60.47
2019-03-22T06:39:21.188Z,60.02
2019-03-22T06:41:48.627Z,59.60
2019-03-22T06:44:15.778Z,59.46
2019-03-22T06:46:42.791Z,59.13
2019-03-22T06:49:09.632Z,58.85
2019-03-22T06:51:37.319Z,59.02
2019-03-22T06:54:04.792Z,59.15
2019-03-22T06:56:31.808Z,59.20
2019-03-22T06:58:58.927Z,59.32
2019-03-22T07:01:26.074Z,59.18
2019-03-22T07:03:52.955Z,58.97
2019-03-22T07:06:19.910Z,58.60
2019-03-22T07:08:46.770Z,58.75
2019-03-22T07:11:16.762Z,58.61
2019-03-22T07:13:44.067Z,58.52
2019-03-22T07:16:11.280Z,58.11
2019-03-22T07:18:38.277Z,57.87
2019-03-22T07:21:05.735Z,57.93
2019-03-22T07:23:33.566Z,57.43
2019-03-22T07:26:01.637Z,57.20
2019-03-22T07:28:31.085Z,57.02
2019-03-22T07:30:58.222Z,56.60
2019-03-22T07:33:27.085Z,56.25
2019-03-22T07:35:54.928Z,55.95
2019-03-22T07:38:22.344Z,56.03
2019-03-22T07:40:49.180Z,55.82
2019-03-22T07:43:16.058Z,55.63
2019-03-22T07:45:42.978Z,55.53
2019-03-22T07:48:11.925Z,55.35
2019-03-22T07:50:40.830Z,55.09
2019-03-22T07:53:07.731Z,54.91
2019-03-22T07:55:36.994Z,54.55
2019-03-22T07:58:06.804Z,54.21
2019-03-22T08:00:33.953Z,53.95
2019-03-22T08:03:01.105Z,53.77
2019-03-22T08:05:28.942Z,53.39
2019-03-22T08:07:58.927Z,52.94
2019-03-22T08:10:27.659Z,52.39
2019-03-22T08:12:56.587Z,51.87
2019-03-22T08:15:30.976Z,51.39
2019-03-22T08:17:59.202Z,50.17
2019-03-22T08:20:32.438Z,49.39
2019-03-22T08:22:59.184Z,48.52
2019-03-22T08:25:26.264Z,47.56
2019-03-22T08:27:53.927Z,47.42
2019-03-22T08:30:24.429Z,46.94
2019-03-22T08:32:51.580Z,46.71
2019-03-22T08:35:20.132Z,46.46
2019-03-22T08:37:52.424Z,46.34
2019-03-22T08:40:16.017Z,46.02
2019-03-22T08:42:43.146Z,45.83
2019-03-22T08:45:11.498Z,45.54
2019-03-22T08:47:45.896Z,45.18
2019-03-22T08:50:15.119Z,44.83
2019-03-22T08:52:42.243Z,44.43
2019-03-22T08:55:10.021Z,43.63
2019-03-22T08:57:37.042Z,42.75
2019-03-22T09:00:09.170Z,41.72
2019-03-22T09:02:36.115Z,40.71
2019-03-22T09:05:05.779Z,40.02
2019-03-22T09:07:33.221Z,39.32
2019-03-22T09:10:02.135Z,38.44
2019-03-22T09:12:29.079Z,38.02
2019-03-22T09:14:55.932Z,37.55
2019-03-22T09:17:23.361Z,36.80
2019-03-22T09:19:51.252Z,36.13
2019-03-22T09:22:18.675Z,35.64
2019-03-22T09:24:47.678Z,35.11
2019-03-22T09:27:17.757Z,34.89
2019-03-22T09:29:47.434Z,34.81
2019-03-22T09:32:14.478Z,34.47
2019-03-22T09:34:42.531Z,34.04
2019-03-22T09:37:09.994Z,33.79
2019-03-22T09:39:39.643Z,33.58
2019-03-22T09:42:07.510Z,33.20
2019-03-22T09:44:43.412Z,32.81
2019-03-22T09:47:04.355Z,32.55
2019-03-22T09:49:31.229Z,32.92
2019-03-22T09:51:58.549Z,33.09
2019-03-22T09:54:25.830Z,33.05
2019-03-22T09:56:52.657Z,33.06
2019-03-22T09:59:19.937Z,33.04
2019-03-22T10:01:47.024Z,32.66
2019-03-22T10:04:18.777Z,31.95
2019-03-22T10:06:45.924Z,31.53
2019-03-22T10:09:12.808Z,31.60
2019-03-22T10:11:39.756Z,32.23
2019-03-22T10:14:06.696Z,32.55
2019-03-22T10:16:34.262Z,32.65
2019-03-22T10:19:04.088Z,32.78
2019-03-22T10:21:33.894Z,32.96
2019-03-22T10:24:01.561Z,32.66
2019-03-22T10:26:29.406Z,32.46
2019-03-22T10:29:06.797Z,32.33
2019-03-22T10:31:37.567Z,32.05
2019-03-22T10:34:25.777Z,31.81
2019-03-22T10:36:53.168Z,31.54
2019-03-22T10:39:20.804Z,31.33
2019-03-22T10:41:48.330Z,31.22
2019-03-22T10:44:15.608Z,30.92
2019-03-22T10:46:43.458Z,30.80
2019-03-22T10:49:12.685Z,30.53
2019-03-22T10:51:39.866Z,30.33
2019-03-22T10:54:07.174Z,30.34
2019-03-22T10:56:34.962Z,30.20
2019-03-22T10:59:01.904Z,30.17
2019-03-22T11:01:52.396Z,29.96
2019-03-22T11:04:17.039Z,29.70
2019-03-22T11:06:44.125Z,29.45
2019-03-22T11:09:11.390Z,29.33
2019-03-22T11:11:38.947Z,29.27
2019-03-22T11:14:06.796Z,29.36
2019-03-22T11:16:34.408Z,29.37
2019-03-22T11:19:02.151Z,29.31
2019-03-22T11:21:29.368Z,29.27
2019-03-22T11:24:00.637Z,29.12
2019-03-22T11:26:27.627Z,29.04
2019-03-22T11:28:54.911Z,28.91
2019-03-22T11:31:28.693Z,28.69
2019-03-22T11:33:53.213Z,28.24
2019-03-22T11:36:20.700Z,27.70
2019-03-22T11:38:47.907Z,26.97
2019-03-22T11:41:15.259Z,26.79
2019-03-22T11:43:42.342Z,26.60
2019-03-22T11:46:09.686Z,26.15
2019-03-22T11:48:36.876Z,26.06
2019-03-22T11:51:09.383Z,26.37
2019-03-22T11:53:38.778Z,26.00
2019-03-22T11:56:05.957Z,25.69
2019-03-22T11:58:33.320Z,25.24
2019-03-22T12:01:00.629Z,24.53
2019-03-22T12:03:27.454Z,24.39
2019-03-22T12:05:55.136Z,23.80
2019-03-22T12:08:22.634Z,23.65
2019-03-22T12:10:50.158Z,23.08
2019-03-22T12:13:16.966Z,23.02
2019-03-22T12:15:43.815Z,22.82
2019-03-22T12:18:10.750Z,22.71
2019-03-22T12:20:38.125Z,22.46
2019-03-22T12:23:05.297Z,22.46
2019-03-22T12:25:32.417Z,22.19
2019-03-22T12:27:59.828Z,22.31
2019-03-22T12:30:26.709Z,22.21
2019-03-22T12:32:53.815Z,22.02
2019-03-22T12:35:21.351Z,21.86
2019-03-22T12:37:48.632Z,21.76
2019-03-22T12:40:24.679Z,21.70
2019-03-22T12:42:53.185Z,21.18
2019-03-22T12:45:36.178Z,21.47
2019-03-22T12:48:03.968Z,21.23
2019-03-22T12:50:40.643Z,18.16
2019-03-22T12:53:10.136Z,21.88
2019-03-22T12:55:37.855Z,21.67
2019-03-22T12:58:04.955Z,21.32
2019-03-22T13:00:32.534Z,21.24
2019-03-22T13:02:59.580Z,21.21
2019-03-22T13:05:26.887Z,21.12
2019-03-22T13:07:54.285Z,21.66
2019-03-22T13:10:26.230Z,21.65
2019-03-22T13:13:18.412Z,21.82
2019-03-22T13:15:47.551Z,21.61
2019-03-22T13:18:15.026Z,21.55
2019-03-22T13:20:45.029Z,21.35
2019-03-22T13:23:12.535Z,21.52
2019-03-22T13:25:40.105Z,21.41
2019-03-22T13:28:07.235Z,21.43
2019-03-22T13:30:37.415Z,21.10
2019-03-22T13:33:04.871Z,20.63
2019-03-22T13:35:40.154Z,20.30
2019-03-22T13:38:07.129Z,20.28
2019-03-22T13:40:34.308Z,20.58
2019-03-22T13:43:01.771Z,20.90
2019-03-22T13:45:28.890Z,21.08
2019-03-22T13:47:58.242Z,21.19
2019-03-22T13:50:25.393Z,21.06
2019-03-22T13:52:52.490Z,20.78
2019-03-22T13:55:19.869Z,20.64
2019-03-22T13:57:46.712Z,20.77
2019-03-22T14:00:17.727Z,20.66
2019-03-22T14:02:44.912Z,20.29
2019-03-22T14:05:12.382Z,19.89
2019-03-22T14:07:39.414Z,19.64
2019-03-22T14:10:10.260Z,19.60
2019-03-22T14:12:37.486Z,19.72
2019-03-22T14:15:06.744Z,19.68
2019-03-22T14:17:33.933Z,19.56
2019-03-22T14:20:10.465Z,19.88
2019-03-22T14:22:30.125Z,20.33
2019-03-22T14:24:57.453Z,20.79
2019-03-22T14:27:26.735Z,20.97
2019-03-22T14:29:54.068Z,21.24
2019-03-22T14:32:21.525Z,21.58
2019-03-22T14:34:50.035Z,21.97
2019-03-22T14:37:22.184Z,22.13
2019-03-22T14:39:49.714Z,22.08
2019-03-22T14:42:20.473Z,22.04
2019-03-22T14:44:48.388Z,22.05
2019-03-22T14:47:16.557Z,22.12
2019-03-22T14:49:45.554Z,22.40
2019-03-22T14:52:12.491Z,22.64
2019-03-22T14:54:39.276Z,22.60
2019-03-22T14:57:06.167Z,22.97
2019-03-22T14:59:33.151Z,23.16
2019-03-22T15:02:00.600Z,23.57
2019-03-22T15:04:27.393Z,23.97
2019-03-22T15:06:54.534Z,24.30
2019-03-22T15:09:23.487Z,24.13
2019-03-22T15:11:56.122Z,23.65
2019-03-22T15:14:24.959Z,23.37
2019-03-22T15:17:12.607Z,23.55
2019-03-22T15:19:47.603Z,23.79
2019-03-22T15:22:25.768Z,23.68
2019-03-22T15:24:52.633Z,23.45
2019-03-22T15:27:21.859Z,23.33
2019-03-22T15:29:53.899Z,23.40
2019-03-22T15:32:29.885Z,23.56
2019-03-22T15:35:18.169Z,23.81
2019-03-22T15:37:57.459Z,23.85
2019-03-22T15:40:24.480Z,23.99
2019-03-22T15:42:52.858Z,24.41
2019-03-22T15:45:19.824Z,24.60
2019-03-22T15:47:48.860Z,24.65
2019-03-22T15:50:18.189Z,24.58
2019-03-22T15:52:45.970Z,24.52
2019-03-22T15:55:13.414Z,24.57
2019-03-22T15:57:44.313Z,24.89
2019-03-22T16:00:15.925Z,25.30
2019-03-22T16:02:44.173Z,25.64
2019-03-22T16:05:18.739Z,25.79
2019-03-22T16:07:45.934Z,25.82
2019-03-22T16:10:12.900Z,25.64
2019-03-22T16:12:41.021Z,25.51
2019-03-22T16:15:13.258Z,25.54
2019-03-22T16:17:40.309Z,25.27
2019-03-22T16:20:11.482Z,25.14
2019-03-22T16:22:38.928Z,24.99
2019-03-22T16:25:09.048Z,24.96
2019-03-22T16:27:36.549Z,25.08
2019-03-22T16:30:08.481Z,25.48
2019-03-22T16:32:35.548Z,25.60
2019-03-22T16:35:06.926Z,25.68
2019-03-22T16:37:35.699Z,25.62
2019-03-22T16:40:04.807Z,25.60
2019-03-22T16:42:33.925Z,25.82
2019-03-22T16:45:03.200Z,26.01
2019-03-22T16:47:30.135Z,26.54
2019-03-22T16:49:56.992Z,27.32
2019-03-22T16:52:23.834Z,28.60
2019-03-22T16:54:52.551Z,29.90
2019-03-22T16:57:19.688Z,30.79
2019-03-22T16:59:46.886Z,31.32
2019-03-22T17:02:14.229Z,31.19
2019-03-22T17:04:41.779Z,31.33
2019-03-22T17:07:09.488Z,31.75
2019-03-22T17:09:36.816Z,31.95
2019-03-22T17:12:03.969Z,32.01
2019-03-22T17:14:32.597Z,32.46
2019-03-22T17:16:59.839Z,33.15
2019-03-22T17:19:27.061Z,33.82
2019-03-22T17:21:54.332Z,34.28
2019-03-22T17:24:21.591Z,34.23
2019-03-22T17:26:48.471Z,33.96
2019-03-22T17:29:15.975Z,33.93
2019-03-22T17:31:43.188Z,33.67
2019-03-22T17:34:14.140Z,33.52
2019-03-22T17:36:39.624Z,33.94
2019-03-22T17:39:06.641Z,34.19
2019-03-22T17:41:33.986Z,34.44
2019-03-22T17:44:01.348Z,34.81
2019-03-22T17:46:28.451Z,35.07
2019-03-22T17:48:56.264Z,35.66
2019-03-22T17:51:23.442Z,36.43
2019-03-22T17:53:50.551Z,36.75
2019-03-22T17:56:17.726Z,36.97
2019-03-22T17:58:44.759Z,37.35
2019-03-22T18:01:12.669Z,37.75
2019-03-22T18:03:42.586Z,37.96
2019-03-22T18:06:09.797Z,38.26
2019-03-22T18:08:37.360Z,38.55
2019-03-22T18:11:04.716Z,38.83
2019-03-22T18:13:31.925Z,38.92
2019-03-22T18:15:58.842Z,39.44
2019-03-22T18:18:26.378Z,39.75
2019-03-22T18:20:53.590Z,40.09
2019-03-22T18:23:22.174Z,40.77
2019-03-22T18:25:49.436Z,40.79
2019-03-22T18:28:19.781Z,40.36
2019-03-22T18:30:46.613Z,40.70
2019-03-22T18:33:13.983Z,41.09
2019-03-22T18:35:41.612Z,41.24
2019-03-22T18:38:09.030Z,41.38
2019-03-22T18:40:38.185Z,41.29
2019-03-22T18:43:06.777Z,41.75
2019-03-22T18:45:33.700Z,42.00
2019-03-22T18:48:00.818Z,42.33
2019-03-22T18:50:27.839Z,42.27
2019-03-22T18:52:55.102Z,42.17
2019-03-22T18:55:22.583Z,42.70
2019-03-22T18:57:49.482Z,43.17
2019-03-22T19:00:17.487Z,43.93
2019-03-22T19:02:44.387Z,44.43
2019-03-22T19:05:12.438Z,44.70
2019-03-22T19:07:39.305Z,44.56
2019-03-22T19:10:11.766Z,44.62
2019-03-22T19:12:38.870Z,44.90
2019-03-22T19:15:09.731Z,44.77
2019-03-22T19:17:37.249Z,44.42
2019-03-22T19:20:07.920Z,44.51
2019-03-22T19:22:34.769Z,45.97
2019-03-22T19:25:02.536Z,46.81
2019-03-22T19:27:29.718Z,47.81
2019-03-22T19:29:57.142Z,48.09
2019-03-22T19:32:24.215Z,48.12
2019-03-22T19:34:54.651Z,48.18
2019-03-22T19:37:19.799Z,48.07
2019-03-22T19:39:46.743Z,48.09
2019-03-22T19:42:13.639Z,48.43
2019-03-22T19:44:41.015Z,49.04
2019-03-22T19:47:08.806Z,48.85
2019-03-22T19:49:36.022Z,48.92
2019-03-22T19:52:03.650Z,48.69
2019-03-22T19:54:30.565Z,48.40
2019-03-22T19:56:57.736Z,48.34
2019-03-22T19:59:24.523Z,48.54
2019-03-22T20:01:51.766Z,49.21
2019-03-22T20:04:18.543Z,49.19
2019-03-22T20:06:45.310Z,49.09
2019-03-22T20:09:12.480Z,49.32
2019-03-22T20:11:39.397Z,49.11
2019-03-22T20:14:06.478Z,49.89
2019-03-22T20:16:33.431Z,50.95
2019-03-22T20:19:00.567Z,51.07
2019-03-22T20:21:27.482Z,50.75
2019-03-22T20:23:54.414Z,50.48
2019-03-22T20:26:22.175Z,51.32
2019-03-22T20:28:48.924Z,52.11
2019-03-22T20:31:15.897Z,51.76
2019-03-22T20:33:43.133Z,51.75
2019-03-22T20:36:10.917Z,51.75
2019-03-22T20:38:37.858Z,52.08
2019-03-22T20:41:04.992Z,51.97
2019-03-22T20:43:33.754Z,51.65
2019-03-22T20:46:02.205Z,51.84
2019-03-22T20:48:29.093Z,51.95
2019-03-22T20:50:56.543Z,51.88
2019-03-22T20:53:26.128Z,51.98
2019-03-22T20:55:53.214Z,51.96
2019-03-22T20:58:20.572Z,52.37
2019-03-22T21:00:47.548Z,52.51
2019-03-22T21:03:14.488Z,53.09
2019-03-22T21:05:41.685Z,53.04
2019-03-22T21:08:08.472Z,53.10
2019-03-22T21:10:35.309Z,53.54
2019-03-22T21:13:02.375Z,53.56
2019-03-22T21:15:30.280Z,53.58
2019-03-22T21:18:00.511Z,53.66
2019-03-22T21:20:32.159Z,53.75
2019-03-22T21:23:03.327Z,53.83
2019-03-22T21:25:32.338Z,53.82
2019-03-22T21:28:03.909Z,53.88
2019-03-22T21:30:31.614Z,54.12
2019-03-22T21:33:00.569Z,54.20
2019-03-22T21:35:36.880Z,54.05
2019-03-22T21:38:09.987Z,54.24
2019-03-22T21:40:29.515Z,54.64
2019-03-22T21:42:57.315Z,54.62
2019-03-22T21:45:25.990Z,54.79
2019-03-22T21:47:53.181Z,54.63
2019-03-22T21:50:20.270Z,54.97
2019-03-22T21:52:47.425Z,55.06
2019-03-22T21:55:14.210Z,55.40
2019-03-22T21:57:41.083Z,55.54
2019-03-22T22:00:13.467Z,55.34
2019-03-22T22:02:40.664Z,55.50
2019-03-22T22:05:07.803Z,55.66
2019-03-22T22:07:34.593Z,56.37
2019-03-22T22:10:05.099Z,56.02
2019-03-22T22:12:32.275Z,55.79
2019-03-22T22:15:36.207Z,56.12
2019-03-22T22:18:09.608Z,56.02
2019-03-22T22:20:37.779Z,56.24
2019-03-22T22:23:04.679Z,56.64
2019-03-22T22:25:31.845Z,56.76
2019-03-22T22:27:58.867Z,56.97
2019-03-22T22:30:25.663Z,56.66
2019-03-22T22:32:52.602Z,56.61
2019-03-22T22:35:19.824Z,56.83
2019-03-22T22:37:46.844Z,56.96
2019-03-22T22:40:16.649Z,57.27
2019-03-22T22:42:44.215Z,57.61
2019-03-22T22:45:12.419Z,58.08
2019-03-22T22:47:41.878Z,57.78
2019-03-22T22:50:10.891Z,57.82
2019-03-22T22:52:38.170Z,58.62
2019-03-22T22:55:08.171Z,59.06
2019-03-22T22:57:37.438Z,58.93
2019-03-22T23:00:13.250Z,59.05
2019-03-22T23:02:40.254Z,59.37
2019-03-22T23:05:07.430Z,59.01
2019-03-22T23:07:35.714Z,59.22
2019-03-22T23:10:04.838Z,59.63
2019-03-22T23:12:32.242Z,59.13
2019-03-22T23:14:59.160Z,59.70
2019-03-22T23:17:27.407Z,59.91
2019-03-22T23:19:54.344Z,58.92
2019-03-22T23:22:22.351Z,58.50
2019-03-22T23:24:49.333Z,58.60
2019-03-22T23:27:16.377Z,58.69
2019-03-22T23:29:45.855Z,58.75
2019-03-22T23:32:12.861Z,58.96
2019-03-22T23:34:39.908Z,59.33
2019-03-22T23:37:07.330Z,59.59
2019-03-22T23:39:34.591Z,59.39
2019-03-22T23:42:01.364Z,59.53
2019-03-22T23:44:28.232Z,59.80
2019-03-22T23:46:55.429Z,59.98
2019-03-22T23:49:22.361Z,59.76
2019-03-22T23:51:49.219Z,59.54
2019-03-22T23:54:16.355Z,59.82
2019-03-22T23:56:43.674Z,59.97
2019-03-22T23:59:10.947Z,59.83
